Curtiss, WI (54422)

3:33 AM CST on January 24, 2017 (GMT -0600)
Great Lakes Weather Service HQ | | Change Station

Elev 1430 ft 45.04 °N, 90.34 °W | Updated 22 seconds ago

Overcast
Overcast
31.7 °F
Feels Like 32 °F
N
2.0
Wind Variable Wind from West

Today
High -- | Low -- °F
--% Chance of Precip.
Yesterday
High -- | Low -- °F
Precip. -- in
Pressure 29.81 in
Visibility 10.0 miles
Clouds Overcast 1600 ft
Windchill 32 °F
Dew Point 31 °F
Humidity 96%
Rainfall 0.00 in
Snow Depth Not available.
7:29 AM 4:58 PM
Waning Crescent, 13% visible
METAR KMDZ 240915Z AUTO 28004KT 10SM OVC016 00/00 A2981 RMK AO2 T10021005
Pressure 29.81 in
Visibility 10.0 miles
Clouds Overcast 1600 ft
Windchill 32 °F
Dew Point 31 °F
Humidity 96%
Rainfall 0.00 in
Snow Depth Not available.
7:29 AM 4:58 PM
Waning Crescent, 13% visible
METAR KMDZ 240915Z AUTO 28004KT 10SM OVC016 00/00 A2981 RMK AO2 T10021005

Get Your Daily Forecast Email!

Thanks for signing up!

Be on the lookout for a verification email in your inbox.

You'll start receiving the daily forecast at 8 AM.

×

10-Day Weather Forecast

Almanac

Astronomy

Jan. 24, 2017 Rise Set
Actual Time
Civil Twilight
Nautical Twilight
Astronomical Twilight
Moon
Length of Visible Light
Length of Day
Tomorrow will be .
, % of the Moon is Illuminated

Today's Extremes

State Highs State Lows

Community

WunderPhotos

Upload Photos

1,962,540 photos uploaded!

WunderBlog® & News

Nearby

Air Quality

  Air Quality AQ Index Pollutant
Not available.

Snow Depth

Station Depth Elevation

Earthquake Activity

City Distance Mag. Time & Date
Minimum magnitude displayed is 2.5.

Coastal Water Temperatures

Place Temperature

Stations

Nearby Weather Stations

Station Location Temp. Windchill Dew Point Humidity Wind Precip. Elev Updated Type
                   

Watches & Warnings

There are currently no watches in effect.